Aktuální počasí v Česku a ve světě - METAR

Seznam meteostanic umístěných nejčasteji na letišti v ČR a ve světě

Vyhledat místa podle abecedy:
A B C D E F G H I J K L M N O P Q R S T U V W X Y Z

Filtrovat:

ID stanice:
a/nebo
Název místa (fulltext):
 
Místo (ID)Naposledy načteno 
Faro (LPFR) 21.09.2020 02:00 UTC Zobrazit METAR
LPFR 210200Z VRB02KT CAVOK 21/15 Q1018
Florence (LIRQ) 21.09.2020 00:50 UTC Zobrazit METAR
LIRQ 210050Z AUTO 31003KT 4900 BR FEW100/// 16/16 Q1016
Foggia, Gino Lisa (LIBF) 20.09.2020 15:50 UTC Zobrazit METAR
LIBF 201550Z 09013KT CAVOK 27/17 Q1013
Fort de France (TFFF) 21.09.2020 02:00 UTC Zobrazit METAR
TFFF 210200Z AUTO 10004KT CAVOK 26/24 Q1014 TEMPO 3000 SHRA BKN020TCU
Frankfurt/ Main (EDDF) 21.09.2020 01:50 UTC Zobrazit METAR
EDDF 210150Z 08005KT CAVOK 13/06 Q1015 NOSIG
Freetown (GFLL) 06.08.2020 07:00 UTC Zobrazit METAR
GFLL 060700Z 09006KT 9999 BKN011 25/22 Q1014 RMK CB-NE
Funafuti (NGFU) 19.09.2020 15:00 UTC Zobrazit METAR
NGFU 191500Z 08003KT 9999 FEW020 28/23 Q1009
Reklama

Počasí na Váš email

Emaily jsou bez reklamy a bez spamu



Odhlásit newsletter




Další české internetové stránky (nejen) o počasí najdete v katalogu TOPlist - weby o počasí nebo vyhledejte na internetu, co jste tu na 🌞 Slunečnu ⛅ zatím nenašli:
⭐ Přidat Slunečno.cz do oblíbených | 🏠 Nastavit Slunečno.cz jako HOMEPAGE

⬆️ Posunout stránku nahoru ⬆️
Reklama